createdAt,value
2023-01-18T00:49:50.417Z,4.92
2023-01-18T00:52:18.678Z,5.05
2023-01-18T00:54:45.741Z,5.09
2023-01-18T00:57:12.936Z,5.10
2023-01-18T00:59:42.139Z,5.11
2023-01-18T01:02:10.298Z,5.12
2023-01-18T01:04:56.068Z,5.12
2023-01-18T01:07:26.705Z,5.13
2023-01-18T01:09:53.979Z,5.13
2023-01-18T01:12:39.857Z,5.13
2023-01-18T01:15:28.178Z,5.15
2023-01-18T01:18:16.054Z,5.16
2023-01-18T01:21:02.027Z,5.18
2023-01-18T01:23:48.556Z,5.19
2023-01-18T01:26:16.911Z,5.18
2023-01-18T01:28:45.554Z,5.18
2023-01-18T01:31:15.364Z,5.17
2023-01-18T01:33:45.405Z,5.18
2023-01-18T01:42:37.955Z,5.28
2023-01-18T01:45:08.140Z,5.27
2023-01-18T01:47:42.225Z,5.28
2023-01-18T01:50:24.624Z,5.31
2023-01-18T01:52:51.997Z,5.32
2023-01-18T01:55:23.475Z,5.33
2023-01-18T01:57:58.869Z,5.36
2023-01-18T02:00:27.716Z,5.39
2023-01-18T02:03:01.709Z,5.42
2023-01-18T02:05:29.781Z,5.40
2023-01-18T02:07:59.532Z,5.39
2023-01-18T02:10:27.140Z,5.37
2023-01-18T02:12:55.186Z,5.36
2023-01-18T02:15:27.327Z,5.38
2023-01-18T02:18:18.100Z,5.41
2023-01-18T02:20:54.438Z,5.45
2023-01-18T02:23:39.761Z,5.45
2023-01-18T02:26:44.477Z,5.44
2023-01-18T02:29:20.773Z,5.45
2023-01-18T02:32:00.832Z,5.44
2023-01-18T02:34:43.345Z,5.46
2023-01-18T02:37:16.279Z,5.48
2023-01-18T02:40:00.024Z,5.47
2023-01-18T02:42:46.674Z,5.45
2023-01-18T02:45:36.961Z,5.45
2023-01-18T02:48:04.260Z,5.47
2023-01-18T02:50:31.813Z,5.49
2023-01-18T02:52:59.297Z,5.52
2023-01-18T02:55:26.496Z,5.52
2023-01-18T02:57:56.394Z,5.51
2023-01-18T03:14:18.085Z,5.82
2023-01-18T03:16:58.123Z,5.82
2023-01-18T03:19:59.371Z,5.75
2023-01-18T03:22:47.375Z,5.65
2023-01-18T03:25:16.861Z,5.62
2023-01-18T03:28:02.766Z,5.60
2023-01-18T03:30:50.273Z,5.55
2023-01-18T03:33:37.583Z,5.50
2023-01-18T03:36:06.607Z,5.46
2023-01-18T03:38:33.748Z,5.44
2023-01-18T03:41:00.866Z,5.41
2023-01-18T03:43:28.034Z,5.39
2023-01-18T03:45:55.225Z,5.39
2023-01-18T03:48:22.299Z,5.40
2023-01-18T03:51:15.895Z,5.40
2023-01-18T03:53:58.436Z,5.40
2023-01-18T03:56:34.124Z,5.39
2023-01-18T03:59:03.946Z,5.35
2023-01-18T04:01:34.251Z,5.34
2023-01-18T04:04:02.200Z,5.35
2023-01-18T04:06:31.393Z,5.36
2023-01-18T04:08:58.912Z,5.36
2023-01-18T04:11:26.222Z,5.40
2023-01-18T04:13:54.593Z,5.42
2023-01-18T04:16:22.051Z,5.43
2023-01-18T04:18:49.240Z,5.44
2023-01-18T04:21:23.482Z,5.45
2023-01-18T04:23:50.650Z,5.44
2023-01-18T04:26:17.781Z,5.43
2023-01-18T04:28:44.979Z,5.44
2023-01-18T04:31:13.514Z,5.45
2023-01-18T04:33:40.602Z,5.46
2023-01-18T04:36:13.249Z,5.47
2023-01-18T04:38:41.062Z,5.46
2023-01-18T04:41:08.824Z,5.45
2023-01-18T04:43:36.984Z,5.46
2023-01-18T04:46:07.020Z,5.47
2023-01-18T04:48:36.016Z,5.46
2023-01-18T04:51:03.628Z,5.48
2023-01-18T04:53:35.684Z,5.51
2023-01-18T04:56:11.988Z,5.51
2023-01-18T04:58:40.295Z,5.53
2023-01-18T05:01:09.686Z,5.54
2023-01-18T05:03:39.764Z,5.56
2023-01-18T05:06:08.032Z,5.57
2023-01-18T05:08:42.794Z,5.56
2023-01-18T05:11:14.231Z,5.55
2023-01-18T05:13:59.538Z,5.54
2023-01-18T05:17:19.222Z,5.51
2023-01-18T05:19:47.233Z,5.47
2023-01-18T05:22:14.523Z,5.45
2023-01-18T05:24:42.415Z,5.44
2023-01-18T05:27:12.065Z,5.43
2023-01-18T05:29:40.269Z,5.42
2023-01-18T05:32:07.437Z,5.42
2023-01-18T05:34:34.481Z,5.41
2023-01-18T05:37:05.428Z,5.41
2023-01-18T05:39:34.285Z,5.39
2023-01-18T05:42:03.608Z,5.40
2023-01-18T05:44:34.177Z,5.40
2023-01-18T05:47:02.829Z,5.38
2023-01-18T05:49:30.415Z,5.36
2023-01-18T05:52:00.410Z,5.36
2023-01-18T12:04:45.384Z,7.65
2023-01-18T12:07:42.035Z,7.79
2023-01-18T12:10:23.430Z,7.83
2023-01-18T12:13:06.757Z,7.86
2023-01-18T12:15:42.846Z,7.91
2023-01-18T12:18:29.487Z,7.93
2023-01-18T12:21:30.458Z,7.96
2023-01-18T12:24:46.139Z,7.98
2023-01-18T12:28:07.641Z,7.99
2023-01-18T12:30:41.278Z,7.99
2023-01-18T12:33:15.858Z,8.00
2023-01-18T12:36:09.070Z,8.02
2023-01-18T12:38:54.556Z,8.07
2023-01-18T12:41:25.001Z,8.09
2023-01-18T12:44:54.461Z,8.12
2023-01-18T12:47:35.184Z,8.17
2023-01-18T12:50:08.286Z,8.23
2023-01-18T12:52:47.274Z,8.26
2023-01-18T12:55:33.066Z,8.30
2023-01-18T12:58:03.520Z,8.31
2023-01-18T13:00:39.845Z,8.34
2023-01-18T13:15:15.504Z,9.05
2023-01-18T13:18:12.704Z,9.22
2023-01-18T13:20:45.583Z,9.24
2023-01-18T13:23:29.431Z,9.26
2023-01-18T13:26:24.413Z,9.27
2023-01-18T13:29:37.792Z,9.30
2023-01-18T13:32:37.297Z,9.32
2023-01-18T13:35:20.852Z,9.33
2023-01-18T13:38:10.372Z,9.34
2023-01-18T13:40:42.901Z,9.36
2023-01-18T13:43:35.832Z,9.39
2023-01-18T13:46:04.475Z,9.40
2023-01-18T13:48:45.209Z,9.42
2023-01-18T13:51:40.635Z,9.43
2023-01-18T13:54:42.344Z,9.46
2023-01-18T19:59:02.679Z,9.02
2023-01-18T20:01:36.777Z,9.16
2023-01-18T20:04:07.720Z,9.19
2023-01-18T20:06:43.712Z,9.22
2023-01-18T20:09:53.016Z,9.24
2023-01-18T20:12:22.329Z,9.25
2023-01-18T20:14:57.150Z,9.26
2023-01-18T20:17:25.062Z,9.26
2023-01-18T20:19:54.612Z,9.25
2023-01-18T20:22:25.912Z,9.22
2023-01-18T20:24:53.064Z,9.19
2023-01-18T20:27:22.323Z,9.18
2023-01-18T20:29:50.388Z,9.16
2023-01-18T20:32:23.533Z,9.14
2023-01-18T20:35:07.201Z,9.13
2023-01-18T20:45:00.830Z,9.08
2023-01-18T20:47:49.204Z,9.01
2023-01-18T20:50:27.065Z,8.98
2023-01-18T20:52:58.940Z,8.94
2023-01-18T20:56:28.269Z,8.90
2023-01-18T21:02:47.244Z,8.79
2023-01-18T21:05:40.235Z,8.75
2023-01-18T21:08:41.260Z,8.71
2023-01-18T21:12:10.304Z,8.67
2023-01-18T21:14:57.567Z,8.57
